sensor_id;sensor_type;location;lat;lon;timestamp;temperature;humidity
70145;DHT22;57510;51.068;3.872;2022-09-13T00:00:50;19.90;95.50
70145;DHT22;57510;51.068;3.872;2022-09-13T00:03:17;19.90;95.60
70145;DHT22;57510;51.068;3.872;2022-09-13T00:05:43;19.90;95.60
70145;DHT22;57510;51.068;3.872;2022-09-13T00:08:09;19.90;95.60
70145;DHT22;57510;51.068;3.872;2022-09-13T00:10:37;19.90;95.70
70145;DHT22;57510;51.068;3.872;2022-09-13T00:13:16;19.90;95.80
70145;DHT22;57510;51.068;3.872;2022-09-13T00:15:47;19.90;95.80
70145;DHT22;57510;51.068;3.872;2022-09-13T00:18:14;19.90;95.80
70145;DHT22;57510;51.068;3.872;2022-09-13T00:20:40;19.90;95.80
70145;DHT22;57510;51.068;3.872;2022-09-13T00:23:19;19.90;95.80
70145;DHT22;57510;51.068;3.872;2022-09-13T00:25:46;19.80;95.90
70145;DHT22;57510;51.068;3.872;2022-09-13T00:28:12;19.80;95.90
70145;DHT22;57510;51.068;3.872;2022-09-13T00:30:38;19.80;95.90
70145;DHT22;57510;51.068;3.872;2022-09-13T00:33:03;19.80;95.90
70145;DHT22;57510;51.068;3.872;2022-09-13T00:35:29;19.80;95.80
70145;DHT22;57510;51.068;3.872;2022-09-13T00:37:58;19.70;96.10
70145;DHT22;57510;51.068;3.872;2022-09-13T00:40:27;19.70;96.00
70145;DHT22;57510;51.068;3.872;2022-09-13T00:42:54;19.70;96.10
70145;DHT22;57510;51.068;3.872;2022-09-13T00:45:20;19.60;96.10
70145;DHT22;57510;51.068;3.872;2022-09-13T00:48:04;19.60;96.00
70145;DHT22;57510;51.068;3.872;2022-09-13T00:50:53;19.60;96.20
70145;DHT22;57510;51.068;3.872;2022-09-13T00:53:32;19.60;96.20
70145;DHT22;57510;51.068;3.872;2022-09-13T00:56:02;19.60;96.20
70145;DHT22;57510;51.068;3.872;2022-09-13T00:59:31;19.60;96.20
70145;DHT22;57510;51.068;3.872;2022-09-13T01:01:43;19.50;96.20
70145;DHT22;57510;51.068;3.872;2022-09-13T01:04:13;19.40;96.20
70145;DHT22;57510;51.068;3.872;2022-09-13T01:06:40;19.40;96.20
70145;DHT22;57510;51.068;3.872;2022-09-13T01:09:06;19.40;96.20
70145;DHT22;57510;51.068;3.872;2022-09-13T01:14:04;19.40;96.50
70145;DHT22;57510;51.068;3.872;2022-09-13T01:16:35;19.40;96.40
70145;DHT22;57510;51.068;3.872;2022-09-13T01:19:01;19.40;96.40
70145;DHT22;57510;51.068;3.872;2022-09-13T01:30:24;19.30;96.40
70145;DHT22;57510;51.068;3.872;2022-09-13T01:35:46;19.20;96.50
70145;DHT22;57510;51.068;3.872;2022-09-13T01:42:06;19.20;96.70
70145;DHT22;57510;51.068;3.872;2022-09-13T01:48:05;19.10;96.70
70145;DHT22;57510;51.068;3.872;2022-09-13T01:51:05;19.00;96.70
70145;DHT22;57510;51.068;3.872;2022-09-13T01:56:40;19.00;96.80
70145;DHT22;57510;51.068;3.872;2022-09-13T01:59:26;19.10;96.90
70145;DHT22;57510;51.068;3.872;2022-09-13T02:02:22;19.00;96.90
70145;DHT22;57510;51.068;3.872;2022-09-13T02:07:43;19.00;97.00
70145;DHT22;57510;51.068;3.872;2022-09-13T02:10:20;19.10;97.00
70145;DHT22;57510;51.068;3.872;2022-09-13T02:12:50;19.00;96.90
70145;DHT22;57510;51.068;3.872;2022-09-13T02:15:30;19.00;96.90
70145;DHT22;57510;51.068;3.872;2022-09-13T02:18:11;19.00;97.00
70145;DHT22;57510;51.068;3.872;2022-09-13T02:20:44;19.00;97.10
70145;DHT22;57510;51.068;3.872;2022-09-13T02:23:27;19.10;97.10
70145;DHT22;57510;51.068;3.872;2022-09-13T02:25:56;19.10;97.10
70145;DHT22;57510;51.068;3.872;2022-09-13T02:28:34;19.10;97.10
70145;DHT22;57510;51.068;3.872;2022-09-13T02:31:04;19.10;97.10
70145;DHT22;57510;51.068;3.872;2022-09-13T02:33:40;19.10;97.00
70145;DHT22;57510;51.068;3.872;2022-09-13T02:36:13;19.10;97.10
70145;DHT22;57510;51.068;3.872;2022-09-13T02:38:53;19.10;97.10
70145;DHT22;57510;51.068;3.872;2022-09-13T02:47:13;19.00;97.20
70145;DHT22;57510;51.068;3.872;2022-09-13T02:55:21;19.00;97.10
70145;DHT22;57510;51.068;3.872;2022-09-13T02:58:02;19.00;97.10
70145;DHT22;57510;51.068;3.872;2022-09-13T03:00:31;19.00;97.10
70145;DHT22;57510;51.068;3.872;2022-09-13T03:02:57;19.00;97.10
70145;DHT22;57510;51.068;3.872;2022-09-13T03:05:31;19.00;97.00
70145;DHT22;57510;51.068;3.872;2022-09-13T03:07:58;19.00;97.10
70145;DHT22;57510;51.068;3.872;2022-09-13T03:10:31;18.90;97.10
70145;DHT22;57510;51.068;3.872;2022-09-13T03:24:27;18.90;97.20
70145;DHT22;57510;51.068;3.872;2022-09-13T03:32:29;18.90;97.30
70145;DHT22;57510;51.068;3.872;2022-09-13T03:43:30;19.00;97.40
70145;DHT22;57510;51.068;3.872;2022-09-13T03:46:14;19.00;97.40
70145;DHT22;57510;51.068;3.872;2022-09-13T03:48:44;19.10;97.40
70145;DHT22;57510;51.068;3.872;2022-09-13T03:51:10;19.10;97.40
70145;DHT22;57510;51.068;3.872;2022-09-13T03:53:40;19.10;97.40
70145;DHT22;57510;51.068;3.872;2022-09-13T03:56:18;19.00;97.30
70145;DHT22;57510;51.068;3.872;2022-09-13T03:58:48;19.00;97.40
70145;DHT22;57510;51.068;3.872;2022-09-13T04:01:22;19.00;97.30
70145;DHT22;57510;51.068;3.872;2022-09-13T04:03:48;18.90;97.30
70145;DHT22;57510;51.068;3.872;2022-09-13T04:06:17;18.90;97.30
70145;DHT22;57510;51.068;3.872;2022-09-13T04:08:43;18.90;97.60
70145;DHT22;57510;51.068;3.872;2022-09-13T04:11:11;18.90;97.40
70145;DHT22;57510;51.068;3.872;2022-09-13T04:16:29;19.00;97.40
70145;DHT22;57510;51.068;3.872;2022-09-13T04:18:55;19.00;97.40
70145;DHT22;57510;51.068;3.872;2022-09-13T04:21:28;19.00;97.40
70145;DHT22;57510;51.068;3.872;2022-09-13T04:23:53;18.90;97.40
70145;DHT22;57510;51.068;3.872;2022-09-13T04:26:21;18.90;97.50
70145;DHT22;57510;51.068;3.872;2022-09-13T04:28:48;18.90;97.50
70145;DHT22;57510;51.068;3.872;2022-09-13T04:31:13;18.80;97.40
70145;DHT22;57510;51.068;3.872;2022-09-13T04:33:42;18.80;97.40
70145;DHT22;57510;51.068;3.872;2022-09-13T04:36:08;18.80;97.40
70145;DHT22;57510;51.068;3.872;2022-09-13T04:38:33;18.80;97.40
70145;DHT22;57510;51.068;3.872;2022-09-13T04:40:59;18.80;97.30
70145;DHT22;57510;51.068;3.872;2022-09-13T04:43:37;18.90;97.40
70145;DHT22;57510;51.068;3.872;2022-09-13T04:46:03;18.90;97.40
70145;DHT22;57510;51.068;3.872;2022-09-13T04:48:37;18.90;97.40
70145;DHT22;57510;51.068;3.872;2022-09-13T04:51:05;18.90;97.40
70145;DHT22;57510;51.068;3.872;2022-09-13T04:53:31;19.00;97.40
70145;DHT22;57510;51.068;3.872;2022-09-13T04:56:07;19.00;97.30
70145;DHT22;57510;51.068;3.872;2022-09-13T04:58:35;18.90;97.30
70145;DHT22;57510;51.068;3.872;2022-09-13T05:01:01;19.00;97.30
70145;DHT22;57510;51.068;3.872;2022-09-13T05:03:32;19.00;97.30
70145;DHT22;57510;51.068;3.872;2022-09-13T05:06:06;19.00;97.30
70145;DHT22;57510;51.068;3.872;2022-09-13T05:08:33;19.00;97.30
70145;DHT22;57510;51.068;3.872;2022-09-13T05:10:59;19.00;97.30
70145;DHT22;57510;51.068;3.872;2022-09-13T05:13:25;18.90;97.20
70145;DHT22;57510;51.068;3.872;2022-09-13T05:16:00;18.90;97.20
70145;DHT22;57510;51.068;3.872;2022-09-13T05:18:27;19.00;97.30
70145;DHT22;57510;51.068;3.872;2022-09-13T05:20:54;19.00;97.30
70145;DHT22;57510;51.068;3.872;2022-09-13T05:23:23;19.00;97.30
70145;DHT22;57510;51.068;3.872;2022-09-13T05:26:00;19.00;97.30
70145;DHT22;57510;51.068;3.872;2022-09-13T05:28:31;19.00;97.30
70145;DHT22;57510;51.068;3.872;2022-09-13T05:31:05;19.10;97.40
70145;DHT22;57510;51.068;3.872;2022-09-13T05:33:35;19.10;97.30
70145;DHT22;57510;51.068;3.872;2022-09-13T05:36:02;19.00;97.30
70145;DHT22;57510;51.068;3.872;2022-09-13T05:38:37;19.10;97.30
70145;DHT22;57510;51.068;3.872;2022-09-13T05:41:04;19.10;97.30
70145;DHT22;57510;51.068;3.872;2022-09-13T05:43:32;19.10;97.30
70145;DHT22;57510;51.068;3.872;2022-09-13T05:46:11;19.10;97.20
70145;DHT22;57510;51.068;3.872;2022-09-13T05:48:38;19.20;97.10
70145;DHT22;57510;51.068;3.872;2022-09-13T05:51:12;19.20;97.20
70145;DHT22;57510;51.068;3.872;2022-09-13T05:53:43;19.20;97.20
70145;DHT22;57510;51.068;3.872;2022-09-13T05:56:11;19.20;97.20
70145;DHT22;57510;51.068;3.872;2022-09-13T05:58:43;19.30;97.20
70145;DHT22;57510;51.068;3.872;2022-09-13T06:01:15;19.30;97.20
70145;DHT22;57510;51.068;3.872;2022-09-13T06:03:41;19.30;97.20
70145;DHT22;57510;51.068;3.872;2022-09-13T06:06:07;19.30;97.10
70145;DHT22;57510;51.068;3.872;2022-09-13T06:08:34;19.30;97.00
70145;DHT22;57510;51.068;3.872;2022-09-13T06:11:02;19.40;97.10
70145;DHT22;57510;51.068;3.872;2022-09-13T06:13:38;19.40;97.10
70145;DHT22;57510;51.068;3.872;2022-09-13T06:16:06;19.50;97.10
70145;DHT22;57510;51.068;3.872;2022-09-13T06:18:34;19.50;97.10
70145;DHT22;57510;51.068;3.872;2022-09-13T06:21:29;19.60;97.00
70145;DHT22;57510;51.068;3.872;2022-09-13T06:23:55;19.70;97.00
70145;DHT22;57510;51.068;3.872;2022-09-13T06:26:23;19.80;96.90
70145;DHT22;57510;51.068;3.872;2022-09-13T06:28:51;19.80;96.80
70145;DHT22;57510;51.068;3.872;2022-09-13T06:31:21;19.90;96.80
70145;DHT22;57510;51.068;3.872;2022-09-13T06:33:54;19.90;96.80
70145;DHT22;57510;51.068;3.872;2022-09-13T06:36:21;19.80;96.70
70145;DHT22;57510;51.068;3.872;2022-09-13T06:38:47;19.80;96.70
70145;DHT22;57510;51.068;3.872;2022-09-13T06:41:18;19.90;96.70
70145;DHT22;57510;51.068;3.872;2022-09-13T06:44:00;20.00;96.60
70145;DHT22;57510;51.068;3.872;2022-09-13T06:46:31;20.00;96.40
70145;DHT22;57510;51.068;3.872;2022-09-13T06:48:59;20.10;96.30
70145;DHT22;57510;51.068;3.872;2022-09-13T06:51:26;20.10;96.20
70145;DHT22;57510;51.068;3.872;2022-09-13T06:53:53;20.20;96.10
70145;DHT22;57510;51.068;3.872;2022-09-13T06:56:34;20.30;96.10
70145;DHT22;57510;51.068;3.872;2022-09-13T06:59:04;20.50;96.00
70145;DHT22;57510;51.068;3.872;2022-09-13T07:01:35;20.70;95.90
70145;DHT22;57510;51.068;3.872;2022-09-13T07:04:04;20.80;95.80
70145;DHT22;57510;51.068;3.872;2022-09-13T07:06:36;21.00;95.60
70145;DHT22;57510;51.068;3.872;2022-09-13T07:09:03;21.10;95.50
70145;DHT22;57510;51.068;3.872;2022-09-13T07:11:33;21.30;95.30
70145;DHT22;57510;51.068;3.872;2022-09-13T07:14:02;21.40;95.10
70145;DHT22;57510;51.068;3.872;2022-09-13T07:16:37;21.50;94.90
70145;DHT22;57510;51.068;3.872;2022-09-13T07:19:06;21.70;94.80
70145;DHT22;57510;51.068;3.872;2022-09-13T07:21:33;21.90;94.70
70145;DHT22;57510;51.068;3.872;2022-09-13T07:24:08;22.00;94.40
70145;DHT22;57510;51.068;3.872;2022-09-13T07:26:36;22.10;94.10
70145;DHT22;57510;51.068;3.872;2022-09-13T07:29:07;22.30;93.90
70145;DHT22;57510;51.068;3.872;2022-09-13T07:31:45;22.40;93.80
70145;DHT22;57510;51.068;3.872;2022-09-13T07:34:14;22.40;93.60
70145;DHT22;57510;51.068;3.872;2022-09-13T07:36:43;22.50;93.40
70145;DHT22;57510;51.068;3.872;2022-09-13T07:39:11;22.60;93.40
70145;DHT22;57510;51.068;3.872;2022-09-13T07:41:37;22.70;93.20
70145;DHT22;57510;51.068;3.872;2022-09-13T07:44:03;22.80;92.90
70145;DHT22;57510;51.068;3.872;2022-09-13T07:46:34;23.00;92.60
70145;DHT22;57510;51.068;3.872;2022-09-13T07:49:11;23.10;92.40
70145;DHT22;57510;51.068;3.872;2022-09-13T07:51:42;23.20;92.10
70145;DHT22;57510;51.068;3.872;2022-09-13T07:54:18;23.40;92.10
70145;DHT22;57510;51.068;3.872;2022-09-13T07:56:45;23.60;91.60
70145;DHT22;57510;51.068;3.872;2022-09-13T07:59:13;23.70;91.40
70145;DHT22;57510;51.068;3.872;2022-09-13T08:01:44;23.80;90.90
70145;DHT22;57510;51.068;3.872;2022-09-13T08:04:15;23.80;90.50
70145;DHT22;57510;51.068;3.872;2022-09-13T08:06:44;23.90;90.30
70145;DHT22;57510;51.068;3.872;2022-09-13T08:09:13;23.80;90.40
70145;DHT22;57510;51.068;3.872;2022-09-13T08:11:46;24.00;90.40
70145;DHT22;57510;51.068;3.872;2022-09-13T08:14:15;24.00;90.00
70145;DHT22;57510;51.068;3.872;2022-09-13T08:16:41;24.10;90.00
70145;DHT22;57510;51.068;3.872;2022-09-13T08:19:10;24.20;89.90
70145;DHT22;57510;51.068;3.872;2022-09-13T08:21:40;24.40;89.90
70145;DHT22;57510;51.068;3.872;2022-09-13T08:24:12;24.60;89.60
70145;DHT22;57510;51.068;3.872;2022-09-13T08:26:39;24.80;89.10
70145;DHT22;57510;51.068;3.872;2022-09-13T08:29:15;24.90;88.80
70145;DHT22;57510;51.068;3.872;2022-09-13T08:31:41;24.90;88.40
70145;DHT22;57510;51.068;3.872;2022-09-13T08:34:16;24.70;88.50
70145;DHT22;57510;51.068;3.872;2022-09-13T08:36:43;24.50;88.70
70145;DHT22;57510;51.068;3.872;2022-09-13T08:39:10;24.60;89.20
70145;DHT22;57510;51.068;3.872;2022-09-13T08:44:23;24.80;88.80
70145;DHT22;57510;51.068;3.872;2022-09-13T08:46:53;24.70;88.30
70145;DHT22;57510;51.068;3.872;2022-09-13T08:49:31;24.70;88.20
70145;DHT22;57510;51.068;3.872;2022-09-13T08:54:48;24.50;88.60
70145;DHT22;57510;51.068;3.872;2022-09-13T08:57:24;24.40;89.00
70145;DHT22;57510;51.068;3.872;2022-09-13T09:05:18;24.60;88.80
70145;DHT22;57510;51.068;3.872;2022-09-13T09:07:58;24.70;88.40
70145;DHT22;57510;51.068;3.872;2022-09-13T09:10:50;24.70;88.40
70145;DHT22;57510;51.068;3.872;2022-09-13T09:13:53;24.80;88.30
70145;DHT22;57510;51.068;3.872;2022-09-13T09:16:46;24.90;88.10
70145;DHT22;57510;51.068;3.872;2022-09-13T09:19:37;25.00;87.90
70145;DHT22;57510;51.068;3.872;2022-09-13T09:22:18;25.10;87.50
70145;DHT22;57510;51.068;3.872;2022-09-13T09:24:51;25.00;86.70
70145;DHT22;57510;51.068;3.872;2022-09-13T09:27:19;24.90;87.20
70145;DHT22;57510;51.068;3.872;2022-09-13T09:29:48;25.00;87.40
70145;DHT22;57510;51.068;3.872;2022-09-13T09:40:51;24.80;86.70
70145;DHT22;57510;51.068;3.872;2022-09-13T09:43:22;24.80;86.30
70145;DHT22;57510;51.068;3.872;2022-09-13T09:45:51;24.70;86.60
70145;DHT22;57510;51.068;3.872;2022-09-13T09:48:23;24.80;86.90
70145;DHT22;57510;51.068;3.872;2022-09-13T09:50:54;24.80;86.90
70145;DHT22;57510;51.068;3.872;2022-09-13T09:53:30;24.80;86.60
70145;DHT22;57510;51.068;3.872;2022-09-13T09:56:01;24.80;87.00
70145;DHT22;57510;51.068;3.872;2022-09-13T09:58:40;24.80;86.70
70145;DHT22;57510;51.068;3.872;2022-09-13T10:01:36;24.70;86.00
70145;DHT22;57510;51.068;3.872;2022-09-13T10:06:33;24.70;86.80
70145;DHT22;57510;51.068;3.872;2022-09-13T10:09:15;24.80;86.00
70145;DHT22;57510;51.068;3.872;2022-09-13T10:11:56;25.00;86.00
70145;DHT22;57510;51.068;3.872;2022-09-13T10:14:41;25.30;85.50
70145;DHT22;57510;51.068;3.872;2022-09-13T10:17:26;25.50;84.70
70145;DHT22;57510;51.068;3.872;2022-09-13T10:22:37;26.10;83.40
70145;DHT22;57510;51.068;3.872;2022-09-13T10:25:36;26.60;82.90
70145;DHT22;57510;51.068;3.872;2022-09-13T10:28:04;27.00;81.60
70145;DHT22;57510;51.068;3.872;2022-09-13T10:30:46;27.20;80.70
70145;DHT22;57510;51.068;3.872;2022-09-13T10:33:43;27.10;80.60
70145;DHT22;57510;51.068;3.872;2022-09-13T10:36:29;27.20;81.10
70145;DHT22;57510;51.068;3.872;2022-09-13T10:39:01;27.30;80.70
70145;DHT22;57510;51.068;3.872;2022-09-13T10:41:31;27.20;79.80
70145;DHT22;57510;51.068;3.872;2022-09-13T10:44:08;26.90;79.80
70145;DHT22;57510;51.068;3.872;2022-09-13T10:46:47;27.10;79.50
70145;DHT22;57510;51.068;3.872;2022-09-13T10:52:41;27.40;79.20
70145;DHT22;57510;51.068;3.872;2022-09-13T10:55:23;27.70;79.90
70145;DHT22;57510;51.068;3.872;2022-09-13T11:06:19;28.20;76.00
70145;DHT22;57510;51.068;3.872;2022-09-13T11:09:17;28.20;77.10
70145;DHT22;57510;51.068;3.872;2022-09-13T11:23:39;28.60;76.50
70145;DHT22;57510;51.068;3.872;2022-09-13T11:31:20;28.80;77.10
70145;DHT22;57510;51.068;3.872;2022-09-13T11:34:42;28.60;77.90
70145;DHT22;57510;51.068;3.872;2022-09-13T11:37:35;28.40;78.00
70145;DHT22;57510;51.068;3.872;2022-09-13T11:46:04;27.60;79.40
70145;DHT22;57510;51.068;3.872;2022-09-13T11:56:58;28.00;78.80
70145;DHT22;57510;51.068;3.872;2022-09-13T12:02:26;28.00;79.00
70145;DHT22;57510;51.068;3.872;2022-09-13T12:05:39;28.30;78.90
70145;DHT22;57510;51.068;3.872;2022-09-13T12:08:16;28.50;78.10
70145;DHT22;57510;51.068;3.872;2022-09-13T12:13:30;28.40;78.10
70145;DHT22;57510;51.068;3.872;2022-09-13T12:16:04;28.30;78.40
70145;DHT22;57510;51.068;3.872;2022-09-13T12:18:37;28.00;78.70
70145;DHT22;57510;51.068;3.872;2022-09-13T12:21:10;27.10;80.20
70145;DHT22;57510;51.068;3.872;2022-09-13T12:23:52;26.90;80.80
70145;DHT22;57510;51.068;3.872;2022-09-13T12:29:21;26.30;83.00
70145;DHT22;57510;51.068;3.872;2022-09-13T12:31:52;26.10;84.20
70145;DHT22;57510;51.068;3.872;2022-09-13T12:46:00;25.20;90.10
70145;DHT22;57510;51.068;3.872;2022-09-13T12:57:50;24.90;91.50
70145;DHT22;57510;51.068;3.872;2022-09-13T13:00:32;24.80;92.10
70145;DHT22;57510;51.068;3.872;2022-09-13T13:05:38;24.60;92.50
70145;DHT22;57510;51.068;3.872;2022-09-13T13:08:25;24.80;92.70
70145;DHT22;57510;51.068;3.872;2022-09-13T13:11:10;24.80;92.80
70145;DHT22;57510;51.068;3.872;2022-09-13T13:13:55;24.90;92.80
70145;DHT22;57510;51.068;3.872;2022-09-13T13:16:31;25.00;92.70
70145;DHT22;57510;51.068;3.872;2022-09-13T13:24:54;25.60;92.70
70145;DHT22;57510;51.068;3.872;2022-09-13T13:27:38;25.50;92.60
70145;DHT22;57510;51.068;3.872;2022-09-13T13:30:38;25.70;92.30
70145;DHT22;57510;51.068;3.872;2022-09-13T13:33:22;25.70;92.10
70145;DHT22;57510;51.068;3.872;2022-09-13T13:35:52;25.80;92.20
70145;DHT22;57510;51.068;3.872;2022-09-13T13:43:51;25.70;92.10
70145;DHT22;57510;51.068;3.872;2022-09-13T13:46:30;25.60;92.40
70145;DHT22;57510;51.068;3.872;2022-09-13T13:54:59;25.30;92.60
70145;DHT22;57510;51.068;3.872;2022-09-13T13:58:25;25.20;92.60
70145;DHT22;57510;51.068;3.872;2022-09-13T14:00:26;25.20;92.70
70145;DHT22;57510;51.068;3.872;2022-09-13T14:09:11;24.90;92.90
70145;DHT22;57510;51.068;3.872;2022-09-13T14:14:44;24.90;93.10
70145;DHT22;57510;51.068;3.872;2022-09-13T14:20:08;24.90;93.30
70145;DHT22;57510;51.068;3.872;2022-09-13T14:22:35;25.00;93.50
70145;DHT22;57510;51.068;3.872;2022-09-13T14:25:24;25.00;93.30
70145;DHT22;57510;51.068;3.872;2022-09-13T14:27:55;25.00;93.40
70145;DHT22;57510;51.068;3.872;2022-09-13T14:32:54;25.00;93.00
70145;DHT22;57510;51.068;3.872;2022-09-13T14:35:27;24.90;93.00
70145;DHT22;57510;51.068;3.872;2022-09-13T14:37:56;24.80;93.10
70145;DHT22;57510;51.068;3.872;2022-09-13T14:40:34;24.60;93.30
70145;DHT22;57510;51.068;3.872;2022-09-13T14:43:14;24.60;93.40
70145;DHT22;57510;51.068;3.872;2022-09-13T14:45:42;24.60;93.50
70145;DHT22;57510;51.068;3.872;2022-09-13T14:51:02;24.30;93.80
70145;DHT22;57510;51.068;3.872;2022-09-13T14:53:33;24.30;94.10
70145;DHT22;57510;51.068;3.872;2022-09-13T14:56:06;24.10;94.10
70145;DHT22;57510;51.068;3.872;2022-09-13T14:58:50;24.10;94.40
70145;DHT22;57510;51.068;3.872;2022-09-13T15:01:20;24.10;94.30
70145;DHT22;57510;51.068;3.872;2022-09-13T15:03:48;23.90;94.40
70145;DHT22;57510;51.068;3.872;2022-09-13T15:06:43;23.80;94.70
70145;DHT22;57510;51.068;3.872;2022-09-13T15:11:57;23.90;94.80
70145;DHT22;57510;51.068;3.872;2022-09-13T15:14:29;23.90;94.90
70145;DHT22;57510;51.068;3.872;2022-09-13T15:22:14;23.80;95.00
70145;DHT22;57510;51.068;3.872;2022-09-13T15:24:44;23.80;95.10
70145;DHT22;57510;51.068;3.872;2022-09-13T15:27:43;23.90;95.20
70145;DHT22;57510;51.068;3.872;2022-09-13T15:30:27;23.90;95.10
70145;DHT22;57510;51.068;3.872;2022-09-13T15:35:40;24.10;95.20
70145;DHT22;57510;51.068;3.872;2022-09-13T15:38:26;24.10;95.10
70145;DHT22;57510;51.068;3.872;2022-09-13T15:43:34;24.00;95.20
70145;DHT22;57510;51.068;3.872;2022-09-13T15:46:00;24.00;95.20
70145;DHT22;57510;51.068;3.872;2022-09-13T15:48:34;23.80;95.40
70145;DHT22;57510;51.068;3.872;2022-09-13T15:53:32;23.70;95.70
70145;DHT22;57510;51.068;3.872;2022-09-13T15:56:00;23.90;95.50
70145;DHT22;57510;51.068;3.872;2022-09-13T15:58:28;24.00;95.30
70145;DHT22;57510;51.068;3.872;2022-09-13T16:00:54;24.00;95.20
70145;DHT22;57510;51.068;3.872;2022-09-13T16:03:20;23.90;94.90
70145;DHT22;57510;51.068;3.872;2022-09-13T16:05:46;23.90;95.10
70145;DHT22;57510;51.068;3.872;2022-09-13T16:08:11;23.60;95.10
70145;DHT22;57510;51.068;3.872;2022-09-13T16:10:38;23.50;95.40
70145;DHT22;57510;51.068;3.872;2022-09-13T16:13:03;23.40;95.60
70145;DHT22;57510;51.068;3.872;2022-09-13T16:15:29;23.50;95.50
70145;DHT22;57510;51.068;3.872;2022-09-13T16:17:55;23.60;95.40
70145;DHT22;57510;51.068;3.872;2022-09-13T16:20:24;23.60;95.30
70145;DHT22;57510;51.068;3.872;2022-09-13T16:22:52;23.60;95.40
70145;DHT22;57510;51.068;3.872;2022-09-13T16:25:20;23.70;95.50
70145;DHT22;57510;51.068;3.872;2022-09-13T16:27:48;23.60;95.00
70145;DHT22;57510;51.068;3.872;2022-09-13T16:30:18;23.40;95.00
70145;DHT22;57510;51.068;3.872;2022-09-13T16:32:44;23.40;95.00
70145;DHT22;57510;51.068;3.872;2022-09-13T16:35:11;23.30;95.00
70145;DHT22;57510;51.068;3.872;2022-09-13T16:37:39;23.20;95.10
70145;DHT22;57510;51.068;3.872;2022-09-13T16:40:06;23.20;95.10
70145;DHT22;57510;51.068;3.872;2022-09-13T16:42:33;23.20;95.20
70145;DHT22;57510;51.068;3.872;2022-09-13T16:44:59;23.20;95.40
70145;DHT22;57510;51.068;3.872;2022-09-13T16:47:25;23.10;95.40
70145;DHT22;57510;51.068;3.872;2022-09-13T16:49:51;23.10;95.40
70145;DHT22;57510;51.068;3.872;2022-09-13T16:52:17;23.00;95.20
70145;DHT22;57510;51.068;3.872;2022-09-13T16:54:43;22.90;95.30
70145;DHT22;57510;51.068;3.872;2022-09-13T16:57:11;22.90;95.50
70145;DHT22;57510;51.068;3.872;2022-09-13T16:59:38;22.80;95.60
70145;DHT22;57510;51.068;3.872;2022-09-13T17:02:06;22.70;95.60
70145;DHT22;57510;51.068;3.872;2022-09-13T17:04:32;22.60;95.80
70145;DHT22;57510;51.068;3.872;2022-09-13T17:06:58;22.30;95.80
70145;DHT22;57510;51.068;3.872;2022-09-13T17:09:26;22.20;95.80
70145;DHT22;57510;51.068;3.872;2022-09-13T17:11:53;22.00;95.70
70145;DHT22;57510;51.068;3.872;2022-09-13T17:14:19;21.80;96.00
70145;DHT22;57510;51.068;3.872;2022-09-13T17:16:50;21.80;96.40
70145;DHT22;57510;51.068;3.872;2022-09-13T17:19:19;21.80;96.10
70145;DHT22;57510;51.068;3.872;2022-09-13T17:21:46;21.70;96.10
70145;DHT22;57510;51.068;3.872;2022-09-13T17:24:12;21.60;96.20
70145;DHT22;57510;51.068;3.872;2022-09-13T17:26:39;21.60;96.10
70145;DHT22;57510;51.068;3.872;2022-09-13T17:29:05;21.60;96.20
70145;DHT22;57510;51.068;3.872;2022-09-13T17:31:31;21.60;96.20
70145;DHT22;57510;51.068;3.872;2022-09-13T17:33:58;21.50;96.10
70145;DHT22;57510;51.068;3.872;2022-09-13T17:36:24;21.40;96.20
70145;DHT22;57510;51.068;3.872;2022-09-13T17:38:57;21.30;96.40
70145;DHT22;57510;51.068;3.872;2022-09-13T17:41:24;21.30;96.40
70145;DHT22;57510;51.068;3.872;2022-09-13T17:43:50;21.10;96.40
70145;DHT22;57510;51.068;3.872;2022-09-13T17:46:19;21.00;96.50
70145;DHT22;57510;51.068;3.872;2022-09-13T17:48:49;21.00;96.60
70145;DHT22;57510;51.068;3.872;2022-09-13T17:51:30;21.00;96.70
70145;DHT22;57510;51.068;3.872;2022-09-13T17:53:58;21.00;96.50
70145;DHT22;57510;51.068;3.872;2022-09-13T17:56:36;21.00;96.50
70145;DHT22;57510;51.068;3.872;2022-09-13T17:59:08;20.90;96.50
70145;DHT22;57510;51.068;3.872;2022-09-13T18:01:36;20.90;96.60
70145;DHT22;57510;51.068;3.872;2022-09-13T18:04:02;20.90;96.60
70145;DHT22;57510;51.068;3.872;2022-09-13T18:06:29;20.90;96.50
70145;DHT22;57510;51.068;3.872;2022-09-13T18:08:55;20.90;96.30
70145;DHT22;57510;51.068;3.872;2022-09-13T18:11:21;20.80;96.30
70145;DHT22;57510;51.068;3.872;2022-09-13T18:13:47;20.70;96.30
70145;DHT22;57510;51.068;3.872;2022-09-13T18:16:15;20.70;96.30
70145;DHT22;57510;51.068;3.872;2022-09-13T18:18:41;20.60;96.50
70145;DHT22;57510;51.068;3.872;2022-09-13T18:21:10;20.50;96.70
70145;DHT22;57510;51.068;3.872;2022-09-13T18:23:39;20.50;96.60
70145;DHT22;57510;51.068;3.872;2022-09-13T18:26:10;20.40;96.70
70145;DHT22;57510;51.068;3.872;2022-09-13T18:28:36;20.40;96.60
70145;DHT22;57510;51.068;3.872;2022-09-13T18:31:04;20.30;96.60
70145;DHT22;57510;51.068;3.872;2022-09-13T18:33:36;20.30;96.60
70145;DHT22;57510;51.068;3.872;2022-09-13T18:36:06;20.20;96.70
70145;DHT22;57510;51.068;3.872;2022-09-13T18:38:42;20.20;96.70
70145;DHT22;57510;51.068;3.872;2022-09-13T18:43:44;20.20;96.70
70145;DHT22;57510;51.068;3.872;2022-09-13T18:46:14;20.20;96.60
70145;DHT22;57510;51.068;3.872;2022-09-13T18:48:45;20.20;96.40
70145;DHT22;57510;51.068;3.872;2022-09-13T18:51:16;20.10;96.50
70145;DHT22;57510;51.068;3.872;2022-09-13T18:53:45;20.10;96.50
70145;DHT22;57510;51.068;3.872;2022-09-13T18:56:17;20.00;96.50
70145;DHT22;57510;51.068;3.872;2022-09-13T18:58:46;20.10;96.70
70145;DHT22;57510;51.068;3.872;2022-09-13T19:01:41;20.10;96.50
70145;DHT22;57510;51.068;3.872;2022-09-13T19:04:14;20.10;96.30
70145;DHT22;57510;51.068;3.872;2022-09-13T19:06:43;20.10;96.40
70145;DHT22;57510;51.068;3.872;2022-09-13T19:09:35;20.00;96.40
70145;DHT22;57510;51.068;3.872;2022-09-13T19:12:01;20.00;96.60
70145;DHT22;57510;51.068;3.872;2022-09-13T19:14:29;20.10;96.50
70145;DHT22;57510;51.068;3.872;2022-09-13T19:16:59;20.00;96.50
70145;DHT22;57510;51.068;3.872;2022-09-13T19:19:28;19.90;96.60
70145;DHT22;57510;51.068;3.872;2022-09-13T19:22:04;19.80;96.50
70145;DHT22;57510;51.068;3.872;2022-09-13T19:24:29;19.90;96.70
70145;DHT22;57510;51.068;3.872;2022-09-13T19:26:57;20.00;96.80
70145;DHT22;57510;51.068;3.872;2022-09-13T19:29:27;19.90;96.70
70145;DHT22;57510;51.068;3.872;2022-09-13T19:31:58;19.90;96.80
70145;DHT22;57510;51.068;3.872;2022-09-13T19:34:36;19.90;96.70
70145;DHT22;57510;51.068;3.872;2022-09-13T19:37:02;19.90;96.70
70145;DHT22;57510;51.068;3.872;2022-09-13T19:39:30;19.90;96.70
70145;DHT22;57510;51.068;3.872;2022-09-13T19:41:58;19.90;96.60